sensor_id;sensor_type;location;lat;lon;timestamp;P1;durP1;ratioP1;P2;durP2;ratioP2
66169;SDS011;52971;44.024;20.456;2022-08-18T00:02:23;10.65;;;9.32;;
66169;SDS011;52971;44.024;20.456;2022-08-18T00:04:50;9.35;;;8.55;;
66169;SDS011;52971;44.024;20.456;2022-08-18T00:07:21;10.10;;;9.05;;
66169;SDS011;52971;44.024;20.456;2022-08-18T00:09:49;10.73;;;9.60;;
66169;SDS011;52971;44.024;20.456;2022-08-18T00:14:49;10.57;;;9.70;;
66169;SDS011;52971;44.024;20.456;2022-08-18T00:17:16;10.93;;;9.48;;
66169;SDS011;52971;44.024;20.456;2022-08-18T00:19:42;10.90;;;9.43;;
66169;SDS011;52971;44.024;20.456;2022-08-18T00:22:08;11.00;;;9.98;;
66169;SDS011;52971;44.024;20.456;2022-08-18T00:24:35;10.48;;;9.55;;
66169;SDS011;52971;44.024;20.456;2022-08-18T00:27:02;10.85;;;9.88;;
66169;SDS011;52971;44.024;20.456;2022-08-18T00:29:29;10.93;;;9.82;;
66169;SDS011;52971;44.024;20.456;2022-08-18T00:31:55;11.50;;;9.88;;
66169;SDS011;52971;44.024;20.456;2022-08-18T00:34:21;12.27;;;10.38;;
66169;SDS011;52971;44.024;20.456;2022-08-18T00:36:46;11.43;;;10.30;;
66169;SDS011;52971;44.024;20.456;2022-08-18T00:39:14;10.93;;;10.00;;
66169;SDS011;52971;44.024;20.456;2022-08-18T00:41:40;11.02;;;10.10;;
66169;SDS011;52971;44.024;20.456;2022-08-18T00:44:05;11.50;;;10.32;;
66169;SDS011;52971;44.024;20.456;2022-08-18T00:46:32;12.27;;;10.70;;
66169;SDS011;52971;44.024;20.456;2022-08-18T00:49:00;11.75;;;10.25;;
66169;SDS011;52971;44.024;20.456;2022-08-18T00:56:36;11.88;;;10.77;;
66169;SDS011;52971;44.024;20.456;2022-08-18T00:59:22;12.27;;;10.65;;
66169;SDS011;52971;44.024;20.456;2022-08-18T01:02:10;11.95;;;10.85;;
66169;SDS011;52971;44.024;20.456;2022-08-18T01:04:44;9.98;;;9.07;;
66169;SDS011;52971;44.024;20.456;2022-08-18T01:07:17;11.40;;;10.40;;
66169;SDS011;52971;44.024;20.456;2022-08-18T01:09:49;12.05;;;10.90;;
66169;SDS011;52971;44.024;20.456;2022-08-18T01:12:16;11.35;;;10.32;;
66169;SDS011;52971;44.024;20.456;2022-08-18T01:14:42;12.43;;;11.05;;
66169;SDS011;52971;44.024;20.456;2022-08-18T01:17:10;11.43;;;10.23;;
66169;SDS011;52971;44.024;20.456;2022-08-18T01:19:55;12.98;;;11.38;;
66169;SDS011;52971;44.024;20.456;2022-08-18T01:25:06;11.43;;;10.18;;
66169;SDS011;52971;44.024;20.456;2022-08-18T01:27:51;12.05;;;10.85;;
66169;SDS011;52971;44.024;20.456;2022-08-18T01:30:18;11.18;;;10.07;;
66169;SDS011;52971;44.024;20.456;2022-08-18T01:32:50;10.98;;;9.88;;
66169;SDS011;52971;44.024;20.456;2022-08-18T01:35:16;10.52;;;9.50;;
66169;SDS011;52971;44.024;20.456;2022-08-18T01:37:44;11.35;;;10.32;;
66169;SDS011;52971;44.024;20.456;2022-08-18T01:40:10;10.75;;;9.70;;
66169;SDS011;52971;44.024;20.456;2022-08-18T01:42:37;10.52;;;9.63;;
66169;SDS011;52971;44.024;20.456;2022-08-18T01:45:04;10.35;;;9.23;;
66169;SDS011;52971;44.024;20.456;2022-08-18T01:47:32;9.98;;;9.10;;
66169;SDS011;52971;44.024;20.456;2022-08-18T01:49:59;11.10;;;10.10;;
66169;SDS011;52971;44.024;20.456;2022-08-18T01:52:25;11.68;;;10.57;;
66169;SDS011;52971;44.024;20.456;2022-08-18T01:54:51;12.15;;;10.23;;
66169;SDS011;52971;44.024;20.456;2022-08-18T01:57:18;11.90;;;10.77;;
66169;SDS011;52971;44.024;20.456;2022-08-18T01:59:44;12.25;;;11.10;;
66169;SDS011;52971;44.024;20.456;2022-08-18T02:02:12;11.10;;;10.02;;
66169;SDS011;52971;44.024;20.456;2022-08-18T02:04:40;10.80;;;9.70;;
66169;SDS011;52971;44.024;20.456;2022-08-18T02:07:07;12.10;;;10.95;;
66169;SDS011;52971;44.024;20.456;2022-08-18T02:09:35;11.63;;;10.63;;
66169;SDS011;52971;44.024;20.456;2022-08-18T02:12:01;12.15;;;11.05;;
66169;SDS011;52971;44.024;20.456;2022-08-18T02:14:28;13.25;;;11.55;;
66169;SDS011;52971;44.024;20.456;2022-08-18T02:16:57;13.73;;;11.05;;
66169;SDS011;52971;44.024;20.456;2022-08-18T02:19:23;14.90;;;11.40;;
66169;SDS011;52971;44.024;20.456;2022-08-18T02:21:50;12.55;;;11.45;;
66169;SDS011;52971;44.024;20.456;2022-08-18T02:24:16;14.05;;;11.27;;
66169;SDS011;52971;44.024;20.456;2022-08-18T02:26:42;12.32;;;11.23;;
66169;SDS011;52971;44.024;20.456;2022-08-18T02:29:08;11.55;;;10.45;;
66169;SDS011;52971;44.024;20.456;2022-08-18T02:31:34;11.23;;;10.23;;
66169;SDS011;52971;44.024;20.456;2022-08-18T02:34:00;11.35;;;10.35;;
66169;SDS011;52971;44.024;20.456;2022-08-18T02:36:25;11.55;;;10.48;;
66169;SDS011;52971;44.024;20.456;2022-08-18T02:38:52;11.93;;;10.82;;
66169;SDS011;52971;44.024;20.456;2022-08-18T02:41:18;11.80;;;10.80;;
66169;SDS011;52971;44.024;20.456;2022-08-18T02:43:44;12.77;;;10.65;;
66169;SDS011;52971;44.024;20.456;2022-08-18T02:46:12;13.68;;;11.38;;
66169;SDS011;52971;44.024;20.456;2022-08-18T02:48:38;12.95;;;11.65;;
66169;SDS011;52971;44.024;20.456;2022-08-18T02:51:08;12.70;;;11.40;;
66169;SDS011;52971;44.024;20.456;2022-08-18T02:53:37;11.63;;;10.50;;
66169;SDS011;52971;44.024;20.456;2022-08-18T02:56:10;11.85;;;10.65;;
66169;SDS011;52971;44.024;20.456;2022-08-18T02:58:50;11.93;;;10.73;;
66169;SDS011;52971;44.024;20.456;2022-08-18T03:01:20;11.60;;;10.70;;
66169;SDS011;52971;44.024;20.456;2022-08-18T03:03:47;11.77;;;10.65;;
66169;SDS011;52971;44.024;20.456;2022-08-18T03:06:14;11.35;;;10.23;;
66169;SDS011;52971;44.024;20.456;2022-08-18T03:08:40;11.80;;;10.70;;
66169;SDS011;52971;44.024;20.456;2022-08-18T03:11:06;11.90;;;10.90;;
66169;SDS011;52971;44.024;20.456;2022-08-18T03:13:31;11.90;;;10.80;;
66169;SDS011;52971;44.024;20.456;2022-08-18T03:15:57;12.30;;;10.50;;
66169;SDS011;52971;44.024;20.456;2022-08-18T03:18:24;11.63;;;10.52;;
66169;SDS011;52971;44.024;20.456;2022-08-18T03:20:49;12.50;;;11.27;;
66169;SDS011;52971;44.024;20.456;2022-08-18T03:23:15;12.50;;;10.55;;
66169;SDS011;52971;44.024;20.456;2022-08-18T03:25:45;11.70;;;10.50;;
66169;SDS011;52971;44.024;20.456;2022-08-18T03:28:13;13.70;;;11.05;;
66169;SDS011;52971;44.024;20.456;2022-08-18T03:30:40;12.85;;;11.25;;
66169;SDS011;52971;44.024;20.456;2022-08-18T03:33:05;11.85;;;10.70;;
66169;SDS011;52971;44.024;20.456;2022-08-18T03:35:33;13.00;;;11.73;;
66169;SDS011;52971;44.024;20.456;2022-08-18T03:37:59;12.63;;;11.25;;
66169;SDS011;52971;44.024;20.456;2022-08-18T03:40:24;12.57;;;11.48;;
66169;SDS011;52971;44.024;20.456;2022-08-18T03:42:50;11.23;;;10.13;;
66169;SDS011;52971;44.024;20.456;2022-08-18T03:45:15;11.73;;;10.60;;
66169;SDS011;52971;44.024;20.456;2022-08-18T03:47:41;14.25;;;11.75;;
66169;SDS011;52971;44.024;20.456;2022-08-18T03:50:07;12.75;;;11.63;;
66169;SDS011;52971;44.024;20.456;2022-08-18T03:52:32;13.05;;;11.85;;
66169;SDS011;52971;44.024;20.456;2022-08-18T03:55:00;12.63;;;11.48;;
66169;SDS011;52971;44.024;20.456;2022-08-18T03:57:25;13.13;;;11.27;;
66169;SDS011;52971;44.024;20.456;2022-08-18T03:59:51;12.70;;;11.45;;
66169;SDS011;52971;44.024;20.456;2022-08-18T04:02:16;16.00;;;10.82;;
66169;SDS011;52971;44.024;20.456;2022-08-18T04:04:43;13.90;;;11.07;;
66169;SDS011;52971;44.024;20.456;2022-08-18T04:07:09;11.48;;;10.27;;
66169;SDS011;52971;44.024;20.456;2022-08-18T04:09:36;12.60;;;10.50;;
66169;SDS011;52971;44.024;20.456;2022-08-18T04:12:06;12.35;;;10.75;;
66169;SDS011;52971;44.024;20.456;2022-08-18T04:14:36;11.30;;;10.30;;
66169;SDS011;52971;44.024;20.456;2022-08-18T04:17:03;14.35;;;12.98;;
66169;SDS011;52971;44.024;20.456;2022-08-18T04:19:29;12.48;;;11.30;;
66169;SDS011;52971;44.024;20.456;2022-08-18T04:21:57;13.80;;;11.13;;
66169;SDS011;52971;44.024;20.456;2022-08-18T04:24:23;14.88;;;11.48;;
66169;SDS011;52971;44.024;20.456;2022-08-18T04:26:49;11.90;;;10.80;;
66169;SDS011;52971;44.024;20.456;2022-08-18T04:29:18;12.43;;;11.25;;
66169;SDS011;52971;44.024;20.456;2022-08-18T04:31:45;12.73;;;11.23;;
66169;SDS011;52971;44.024;20.456;2022-08-18T04:34:11;12.10;;;10.95;;
66169;SDS011;52971;44.024;20.456;2022-08-18T04:36:39;13.32;;;11.50;;
66169;SDS011;52971;44.024;20.456;2022-08-18T04:39:07;13.32;;;11.38;;
66169;SDS011;52971;44.024;20.456;2022-08-18T04:41:35;15.45;;;11.88;;
66169;SDS011;52971;44.024;20.456;2022-08-18T04:44:02;12.15;;;10.88;;
66169;SDS011;52971;44.024;20.456;2022-08-18T04:46:31;12.35;;;11.15;;
66169;SDS011;52971;44.024;20.456;2022-08-18T04:49:00;11.70;;;10.57;;
66169;SDS011;52971;44.024;20.456;2022-08-18T04:51:26;10.38;;;9.57;;
66169;SDS011;52971;44.024;20.456;2022-08-18T04:53:53;10.90;;;10.02;;
66169;SDS011;52971;44.024;20.456;2022-08-18T04:58:51;13.35;;;10.00;;
66169;SDS011;52971;44.024;20.456;2022-08-18T05:01:21;10.05;;;9.10;;
66169;SDS011;52971;44.024;20.456;2022-08-18T05:03:50;12.00;;;10.63;;
66169;SDS011;52971;44.024;20.456;2022-08-18T05:06:17;11.05;;;9.50;;
66169;SDS011;52971;44.024;20.456;2022-08-18T05:08:44;10.20;;;9.20;;
66169;SDS011;52971;44.024;20.456;2022-08-18T05:11:12;10.88;;;9.80;;
66169;SDS011;52971;44.024;20.456;2022-08-18T05:13:39;10.77;;;9.52;;
66169;SDS011;52971;44.024;20.456;2022-08-18T05:16:04;11.63;;;9.50;;
66169;SDS011;52971;44.024;20.456;2022-08-18T05:18:31;9.88;;;8.90;;
66169;SDS011;52971;44.024;20.456;2022-08-18T05:21:02;12.93;;;9.13;;
66169;SDS011;52971;44.024;20.456;2022-08-18T05:23:28;10.88;;;8.82;;
66169;SDS011;52971;44.024;20.456;2022-08-18T05:26:00;8.73;;;7.93;;
66169;SDS011;52971;44.024;20.456;2022-08-18T05:28:28;8.25;;;7.53;;
66169;SDS011;52971;44.024;20.456;2022-08-18T05:30:54;9.35;;;8.10;;
66169;SDS011;52971;44.024;20.456;2022-08-18T05:33:21;9.75;;;8.68;;
66169;SDS011;52971;44.024;20.456;2022-08-18T05:35:47;10.57;;;7.95;;
66169;SDS011;52971;44.024;20.456;2022-08-18T05:38:28;9.80;;;8.48;;
66169;SDS011;52971;44.024;20.456;2022-08-18T05:43:31;10.60;;;9.43;;
66169;SDS011;52971;44.024;20.456;2022-08-18T05:45:58;11.98;;;8.40;;
66169;SDS011;52971;44.024;20.456;2022-08-18T05:48:26;10.82;;;7.97;;
66169;SDS011;52971;44.024;20.456;2022-08-18T05:50:52;10.98;;;7.82;;
66169;SDS011;52971;44.024;20.456;2022-08-18T05:53:20;9.45;;;8.38;;
66169;SDS011;52971;44.024;20.456;2022-08-18T05:56:06;9.15;;;7.63;;
66169;SDS011;52971;44.024;20.456;2022-08-18T05:58:54;9.73;;;8.43;;
66169;SDS011;52971;44.024;20.456;2022-08-18T06:01:22;12.48;;;8.27;;
66169;SDS011;52971;44.024;20.456;2022-08-18T06:03:54;14.40;;;8.68;;
66169;SDS011;52971;44.024;20.456;2022-08-18T06:06:21;13.85;;;8.63;;
66169;SDS011;52971;44.024;20.456;2022-08-18T06:08:57;9.20;;;8.00;;
66169;SDS011;52971;44.024;20.456;2022-08-18T06:11:31;14.10;;;7.50;;
66169;SDS011;52971;44.024;20.456;2022-08-18T06:13:56;12.05;;;7.72;;
66169;SDS011;52971;44.024;20.456;2022-08-18T06:16:41;10.55;;;7.68;;
66169;SDS011;52971;44.024;20.456;2022-08-18T06:21:56;9.48;;;5.80;;
66169;SDS011;52971;44.024;20.456;2022-08-18T06:41:12;5.25;;;3.45;;
66169;SDS011;52971;44.024;20.456;2022-08-18T06:43:40;5.88;;;3.47;;
66169;SDS011;52971;44.024;20.456;2022-08-18T06:46:20;3.97;;;3.63;;
66169;SDS011;52971;44.024;20.456;2022-08-18T06:48:52;4.45;;;3.28;;
66169;SDS011;52971;44.024;20.456;2022-08-18T06:51:21;4.20;;;2.47;;
66169;SDS011;52971;44.024;20.456;2022-08-18T06:53:52;4.32;;;2.70;;
66169;SDS011;52971;44.024;20.456;2022-08-18T06:56:51;3.45;;;2.25;;
66169;SDS011;52971;44.024;20.456;2022-08-18T07:01:53;2.85;;;2.40;;
66169;SDS011;52971;44.024;20.456;2022-08-18T07:04:41;4.55;;;1.95;;
66169;SDS011;52971;44.024;20.456;2022-08-18T07:07:41;3.38;;;2.65;;
66169;SDS011;52971;44.024;20.456;2022-08-18T07:10:06;4.78;;;2.28;;
66169;SDS011;52971;44.024;20.456;2022-08-18T07:13:04;2.17;;;1.98;;
66169;SDS011;52971;44.024;20.456;2022-08-18T07:15:54;2.05;;;1.85;;
66169;SDS011;52971;44.024;20.456;2022-08-18T07:18:37;3.97;;;2.58;;
66169;SDS011;52971;44.024;20.456;2022-08-18T07:21:03;3.08;;;2.28;;
66169;SDS011;52971;44.024;20.456;2022-08-18T07:23:33;3.70;;;2.15;;
66169;SDS011;52971;44.024;20.456;2022-08-18T07:26:11;3.35;;;2.53;;
66169;SDS011;52971;44.024;20.456;2022-08-18T07:28:46;3.20;;;2.03;;
66169;SDS011;52971;44.024;20.456;2022-08-18T07:33:52;4.78;;;2.50;;
66169;SDS011;52971;44.024;20.456;2022-08-18T07:36:22;2.55;;;2.22;;
66169;SDS011;52971;44.024;20.456;2022-08-18T07:38:53;5.57;;;2.72;;
66169;SDS011;52971;44.024;20.456;2022-08-18T07:41:31;3.30;;;2.00;;
66169;SDS011;52971;44.024;20.456;2022-08-18T07:46:59;3.90;;;2.30;;
66169;SDS011;52971;44.024;20.456;2022-08-18T07:49:37;3.97;;;2.30;;
66169;SDS011;52971;44.024;20.456;2022-08-18T07:52:11;3.42;;;2.17;;
66169;SDS011;52971;44.024;20.456;2022-08-18T08:00:10;2.95;;;2.17;;
66169;SDS011;52971;44.024;20.456;2022-08-18T08:08:33;2.40;;;2.15;;
66169;SDS011;52971;44.024;20.456;2022-08-18T08:11:07;3.10;;;2.50;;
66169;SDS011;52971;44.024;20.456;2022-08-18T08:22:07;3.30;;;1.88;;
66169;SDS011;52971;44.024;20.456;2022-08-18T08:27:56;3.60;;;2.33;;
66169;SDS011;52971;44.024;20.456;2022-08-18T08:30:23;2.50;;;1.92;;
66169;SDS011;52971;44.024;20.456;2022-08-18T08:35:46;5.18;;;2.00;;
66169;SDS011;52971;44.024;20.456;2022-08-18T08:38:18;2.70;;;2.22;;
66169;SDS011;52971;44.024;20.456;2022-08-18T08:41:06;2.28;;;1.77;;
66169;SDS011;52971;44.024;20.456;2022-08-18T08:43:39;2.63;;;1.80;;
66169;SDS011;52971;44.024;20.456;2022-08-18T08:46:21;3.70;;;2.10;;
66169;SDS011;52971;44.024;20.456;2022-08-18T08:48:53;2.95;;;2.17;;
66169;SDS011;52971;44.024;20.456;2022-08-18T08:56:48;3.00;;;1.85;;
66169;SDS011;52971;44.024;20.456;2022-08-18T08:59:17;4.05;;;2.35;;
66169;SDS011;52971;44.024;20.456;2022-08-18T09:04:42;2.30;;;1.05;;
66169;SDS011;52971;44.024;20.456;2022-08-18T09:07:20;2.95;;;1.55;;
66169;SDS011;52971;44.024;20.456;2022-08-18T09:18:33;2.75;;;1.25;;
66169;SDS011;52971;44.024;20.456;2022-08-18T09:21:25;2.95;;;1.65;;
66169;SDS011;52971;44.024;20.456;2022-08-18T09:23:56;5.65;;;1.52;;
66169;SDS011;52971;44.024;20.456;2022-08-18T09:37:26;3.25;;;1.10;;
66169;SDS011;52971;44.024;20.456;2022-08-18T09:40:20;2.72;;;1.00;;
66169;SDS011;52971;44.024;20.456;2022-08-18T09:43:13;3.28;;;1.60;;
66169;SDS011;52971;44.024;20.456;2022-08-18T09:50:59;3.40;;;1.33;;
66169;SDS011;52971;44.024;20.456;2022-08-18T09:56:12;1.88;;;1.20;;
66169;SDS011;52971;44.024;20.456;2022-08-18T10:01:22;2.38;;;1.15;;
66169;SDS011;52971;44.024;20.456;2022-08-18T10:06:39;3.28;;;1.08;;
66169;SDS011;52971;44.024;20.456;2022-08-18T10:09:13;1.30;;;1.17;;
66169;SDS011;52971;44.024;20.456;2022-08-18T10:14:55;2.80;;;2.10;;
66169;SDS011;52971;44.024;20.456;2022-08-18T10:22:47;1.08;;;0.98;;
66169;SDS011;52971;44.024;20.456;2022-08-18T10:25:29;1.88;;;1.17;;
66169;SDS011;52971;44.024;20.456;2022-08-18T10:28:07;1.55;;;0.90;;
66169;SDS011;52971;44.024;20.456;2022-08-18T10:33:06;2.80;;;0.90;;
66169;SDS011;52971;44.024;20.456;2022-08-18T10:38:03;17.77;;;1.98;;
66169;SDS011;52971;44.024;20.456;2022-08-18T10:40:37;1.50;;;1.00;;
66169;SDS011;52971;44.024;20.456;2022-08-18T10:43:16;3.30;;;1.00;;
66169;SDS011;52971;44.024;20.456;2022-08-18T10:45:48;2.50;;;0.65;;
66169;SDS011;52971;44.024;20.456;2022-08-18T10:48:25;1.58;;;0.80;;
66169;SDS011;52971;44.024;20.456;2022-08-18T10:51:03;4.05;;;1.13;;
66169;SDS011;52971;44.024;20.456;2022-08-18T10:53:43;6.47;;;1.25;;
66169;SDS011;52971;44.024;20.456;2022-08-18T10:56:37;2.25;;;1.27;;
66169;SDS011;52971;44.024;20.456;2022-08-18T11:07:17;1.58;;;0.70;;
66169;SDS011;52971;44.024;20.456;2022-08-18T11:09:47;11.73;;;2.03;;
66169;SDS011;52971;44.024;20.456;2022-08-18T11:12:15;1.83;;;0.73;;
66169;SDS011;52971;44.024;20.456;2022-08-18T11:15:27;2.05;;;1.00;;
66169;SDS011;52971;44.024;20.456;2022-08-18T11:20:41;3.05;;;0.80;;
66169;SDS011;52971;44.024;20.456;2022-08-18T11:23:12;1.65;;;0.88;;
66169;SDS011;52971;44.024;20.456;2022-08-18T11:25:40;1.55;;;0.80;;
66169;SDS011;52971;44.024;20.456;2022-08-18T11:28:13;1.70;;;0.93;;
66169;SDS011;52971;44.024;20.456;2022-08-18T11:30:44;5.72;;;0.65;;
66169;SDS011;52971;44.024;20.456;2022-08-18T11:33:13;1.50;;;0.70;;
66169;SDS011;52971;44.024;20.456;2022-08-18T11:35:45;2.97;;;0.73;;
66169;SDS011;52971;44.024;20.456;2022-08-18T11:38:13;0.93;;;0.67;;
66169;SDS011;52971;44.024;20.456;2022-08-18T11:40:40;2.22;;;0.95;;
66169;SDS011;52971;44.024;20.456;2022-08-18T11:43:25;2.00;;;0.82;;
66169;SDS011;52971;44.024;20.456;2022-08-18T11:46:10;2.25;;;0.90;;
66169;SDS011;52971;44.024;20.456;2022-08-18T11:48:49;1.27;;;0.80;;
66169;SDS011;52971;44.024;20.456;2022-08-18T11:51:17;1.85;;;0.90;;
66169;SDS011;52971;44.024;20.456;2022-08-18T11:53:50;1.98;;;1.00;;
66169;SDS011;52971;44.024;20.456;2022-08-18T12:04:19;4.28;;;1.17;;
66169;SDS011;52971;44.024;20.456;2022-08-18T12:09:42;3.25;;;1.08;;
66169;SDS011;52971;44.024;20.456;2022-08-18T12:15:27;3.25;;;1.35;;
66169;SDS011;52971;44.024;20.456;2022-08-18T12:17:54;2.05;;;0.85;;
66169;SDS011;52971;44.024;20.456;2022-08-18T12:20:20;2.63;;;0.88;;
66169;SDS011;52971;44.024;20.456;2022-08-18T12:22:46;1.70;;;0.90;;
66169;SDS011;52971;44.024;20.456;2022-08-18T12:25:15;4.93;;;1.35;;
66169;SDS011;52971;44.024;20.456;2022-08-18T12:27:42;2.83;;;1.20;;
66169;SDS011;52971;44.024;20.456;2022-08-18T12:30:08;3.35;;;1.10;;
66169;SDS011;52971;44.024;20.456;2022-08-18T12:32:35;1.45;;;0.80;;
66169;SDS011;52971;44.024;20.456;2022-08-18T12:35:01;1.50;;;1.00;;
66169;SDS011;52971;44.024;20.456;2022-08-18T12:37:28;4.15;;;1.15;;
66169;SDS011;52971;44.024;20.456;2022-08-18T12:39:54;1.00;;;0.80;;
66169;SDS011;52971;44.024;20.456;2022-08-18T12:42:21;3.22;;;0.98;;
66169;SDS011;52971;44.024;20.456;2022-08-18T12:44:47;1.23;;;0.93;;
66169;SDS011;52971;44.024;20.456;2022-08-18T12:47:15;2.13;;;0.85;;
66169;SDS011;52971;44.024;20.456;2022-08-18T12:49:42;1.92;;;0.77;;
66169;SDS011;52971;44.024;20.456;2022-08-18T12:52:08;2.17;;;0.98;;
66169;SDS011;52971;44.024;20.456;2022-08-18T12:54:34;3.15;;;1.55;;
66169;SDS011;52971;44.024;20.456;2022-08-18T12:57:01;1.80;;;0.95;;
66169;SDS011;52971;44.024;20.456;2022-08-18T12:59:29;1.33;;;0.70;;
66169;SDS011;52971;44.024;20.456;2022-08-18T13:01:55;1.45;;;0.70;;
66169;SDS011;52971;44.024;20.456;2022-08-18T13:04:20;8.52;;;1.55;;
66169;SDS011;52971;44.024;20.456;2022-08-18T13:06:50;1.77;;;0.75;;
66169;SDS011;52971;44.024;20.456;2022-08-18T13:09:18;1.65;;;0.80;;
66169;SDS011;52971;44.024;20.456;2022-08-18T13:11:43;1.48;;;0.52;;
66169;SDS011;52971;44.024;20.456;2022-08-18T13:14:09;2.28;;;0.93;;
66169;SDS011;52971;44.024;20.456;2022-08-18T13:16:35;1.63;;;0.60;;
66169;SDS011;52971;44.024;20.456;2022-08-18T13:19:04;2.08;;;0.77;;
66169;SDS011;52971;44.024;20.456;2022-08-18T13:21:30;0.90;;;0.75;;
66169;SDS011;52971;44.024;20.456;2022-08-18T13:23:56;1.42;;;0.60;;
66169;SDS011;52971;44.024;20.456;2022-08-18T13:26:26;1.55;;;0.57;;
66169;SDS011;52971;44.024;20.456;2022-08-18T13:28:54;1.42;;;0.60;;
66169;SDS011;52971;44.024;20.456;2022-08-18T13:31:20;2.53;;;1.00;;
66169;SDS011;52971;44.024;20.456;2022-08-18T13:33:46;2.17;;;0.70;;
66169;SDS011;52971;44.024;20.456;2022-08-18T13:36:11;3.25;;;0.95;;
66169;SDS011;52971;44.024;20.456;2022-08-18T13:38:37;1.63;;;0.50;;
66169;SDS011;52971;44.024;20.456;2022-08-18T13:41:05;2.30;;;0.65;;
66169;SDS011;52971;44.024;20.456;2022-08-18T13:43:34;1.23;;;0.50;;
66169;SDS011;52971;44.024;20.456;2022-08-18T13:46:03;1.23;;;0.50;;
66169;SDS011;52971;44.024;20.456;2022-08-18T13:48:30;2.90;;;0.70;;
66169;SDS011;52971;44.024;20.456;2022-08-18T13:50:56;2.55;;;0.98;;
66169;SDS011;52971;44.024;20.456;2022-08-18T13:53:23;1.92;;;0.73;;
66169;SDS011;52971;44.024;20.456;2022-08-18T13:55:50;2.50;;;0.60;;
66169;SDS011;52971;44.024;20.456;2022-08-18T13:58:16;1.90;;;0.68;;
66169;SDS011;52971;44.024;20.456;2022-08-18T14:00:43;4.78;;;0.75;;
66169;SDS011;52971;44.024;20.456;2022-08-18T14:03:09;2.28;;;0.70;;
66169;SDS011;52971;44.024;20.456;2022-08-18T14:05:36;2.40;;;0.80;;
66169;SDS011;52971;44.024;20.456;2022-08-18T14:08:02;2.35;;;0.90;;
66169;SDS011;52971;44.024;20.456;2022-08-18T14:10:28;5.68;;;3.40;;
66169;SDS011;52971;44.024;20.456;2022-08-18T14:12:56;4.20;;;0.60;;
66169;SDS011;52971;44.024;20.456;2022-08-18T14:15:24;2.55;;;0.77;;
66169;SDS011;52971;44.024;20.456;2022-08-18T14:17:50;3.65;;;1.08;;
66169;SDS011;52971;44.024;20.456;2022-08-18T14:20:16;1.45;;;0.60;;
66169;SDS011;52971;44.024;20.456;2022-08-18T14:23:01;2.28;;;0.85;;
66169;SDS011;52971;44.024;20.456;2022-08-18T14:25:46;3.70;;;1.33;;
66169;SDS011;52971;44.024;20.456;2022-08-18T14:28:30;2.33;;;0.73;;
66169;SDS011;52971;44.024;20.456;2022-08-18T14:30:57;2.80;;;0.75;;
66169;SDS011;52971;44.024;20.456;2022-08-18T14:33:25;4.30;;;0.70;;
66169;SDS011;52971;44.024;20.456;2022-08-18T14:35:52;2.72;;;0.50;;
66169;SDS011;52971;44.024;20.456;2022-08-18T14:38:18;2.53;;;0.60;;
66169;SDS011;52971;44.024;20.456;2022-08-18T14:40:45;2.38;;;0.50;;
66169;SDS011;52971;44.024;20.456;2022-08-18T14:43:12;2.92;;;0.50;;
66169;SDS011;52971;44.024;20.456;2022-08-18T14:45:39;4.65;;;0.70;;
66169;SDS011;52971;44.024;20.456;2022-08-18T14:48:12;2.70;;;0.67;;
66169;SDS011;52971;44.024;20.456;2022-08-18T14:50:38;5.13;;;0.70;;
66169;SDS011;52971;44.024;20.456;2022-08-18T14:53:05;3.55;;;0.77;;
66169;SDS011;52971;44.024;20.456;2022-08-18T14:55:31;2.20;;;0.50;;
66169;SDS011;52971;44.024;20.456;2022-08-18T14:57:57;2.38;;;0.60;;
66169;SDS011;52971;44.024;20.456;2022-08-18T15:00:22;13.55;;;9.13;;
66169;SDS011;52971;44.024;20.456;2022-08-18T15:02:48;8.52;;;5.57;;
66169;SDS011;52971;44.024;20.456;2022-08-18T15:05:14;4.97;;;1.23;;
66169;SDS011;52971;44.024;20.456;2022-08-18T15:07:40;3.45;;;0.77;;
66169;SDS011;52971;44.024;20.456;2022-08-18T15:10:07;4.97;;;1.02;;
66169;SDS011;52971;44.024;20.456;2022-08-18T15:12:34;5.30;;;0.90;;
66169;SDS011;52971;44.024;20.456;2022-08-18T15:15:00;3.45;;;0.57;;
66169;SDS011;52971;44.024;20.456;2022-08-18T15:17:26;2.63;;;0.63;;
66169;SDS011;52971;44.024;20.456;2022-08-18T15:19:52;2.08;;;0.60;;
66169;SDS011;52971;44.024;20.456;2022-08-18T15:22:18;3.72;;;1.23;;
66169;SDS011;52971;44.024;20.456;2022-08-18T15:25:03;3.63;;;0.93;;
66169;SDS011;52971;44.024;20.456;2022-08-18T15:27:48;3.78;;;0.65;;
66169;SDS011;52971;44.024;20.456;2022-08-18T15:30:14;3.25;;;0.73;;
66169;SDS011;52971;44.024;20.456;2022-08-18T15:32:43;4.10;;;0.80;;
66169;SDS011;52971;44.024;20.456;2022-08-18T15:35:10;3.72;;;0.68;;
66169;SDS011;52971;44.024;20.456;2022-08-18T15:37:40;1.77;;;0.73;;
66169;SDS011;52971;44.024;20.456;2022-08-18T15:40:08;4.50;;;0.60;;
66169;SDS011;52971;44.024;20.456;2022-08-18T15:42:36;4.30;;;0.70;;
66169;SDS011;52971;44.024;20.456;2022-08-18T15:45:02;5.28;;;0.85;;
66169;SDS011;52971;44.024;20.456;2022-08-18T15:47:30;2.25;;;0.60;;
66169;SDS011;52971;44.024;20.456;2022-08-18T15:49:59;4.07;;;0.80;;
66169;SDS011;52971;44.024;20.456;2022-08-18T15:52:25;3.25;;;0.57;;
66169;SDS011;52971;44.024;20.456;2022-08-18T15:54:50;6.97;;;0.82;;
66169;SDS011;52971;44.024;20.456;2022-08-18T15:57:16;4.32;;;1.25;;
66169;SDS011;52971;44.024;20.456;2022-08-18T15:59:42;2.50;;;0.82;;
66169;SDS011;52971;44.024;20.456;2022-08-18T16:02:08;4.07;;;0.95;;
66169;SDS011;52971;44.024;20.456;2022-08-18T16:04:34;3.42;;;0.65;;
66169;SDS011;52971;44.024;20.456;2022-08-18T16:07:02;3.00;;;0.63;;
66169;SDS011;52971;44.024;20.456;2022-08-18T16:09:28;4.43;;;0.63;;
66169;SDS011;52971;44.024;20.456;2022-08-18T16:11:53;4.32;;;0.68;;
66169;SDS011;52971;44.024;20.456;2022-08-18T16:14:19;3.17;;;0.47;;
66169;SDS011;52971;44.024;20.456;2022-08-18T16:16:44;3.88;;;0.60;;
66169;SDS011;52971;44.024;20.456;2022-08-18T16:19:10;3.72;;;0.80;;
66169;SDS011;52971;44.024;20.456;2022-08-18T16:21:35;5.35;;;0.70;;
66169;SDS011;52971;44.024;20.456;2022-08-18T16:24:04;6.40;;;1.13;;
66169;SDS011;52971;44.024;20.456;2022-08-18T16:26:30;6.68;;;1.33;;
66169;SDS011;52971;44.024;20.456;2022-08-18T16:28:55;5.60;;;1.65;;
66169;SDS011;52971;44.024;20.456;2022-08-18T16:31:21;5.20;;;1.13;;
66169;SDS011;52971;44.024;20.456;2022-08-18T16:33:52;2.38;;;1.00;;
66169;SDS011;52971;44.024;20.456;2022-08-18T16:36:20;3.15;;;0.57;;
66169;SDS011;52971;44.024;20.456;2022-08-18T16:38:50;4.75;;;0.70;;
66169;SDS011;52971;44.024;20.456;2022-08-18T16:41:16;6.05;;;1.17;;
66169;SDS011;52971;44.024;20.456;2022-08-18T16:43:43;4.90;;;1.15;;
66169;SDS011;52971;44.024;20.456;2022-08-18T16:46:15;8.25;;;1.48;;
66169;SDS011;52971;44.024;20.456;2022-08-18T16:48:42;9.02;;;1.58;;
66169;SDS011;52971;44.024;20.456;2022-08-18T16:51:13;6.10;;;1.55;;
66169;SDS011;52971;44.024;20.456;2022-08-18T16:53:41;8.60;;;1.35;;
66169;SDS011;52971;44.024;20.456;2022-08-18T16:56:11;2.97;;;0.95;;
66169;SDS011;52971;44.024;20.456;2022-08-18T17:01:24;3.45;;;1.40;;
66169;SDS011;52971;44.024;20.456;2022-08-18T17:06:36;7.03;;;1.38;;
66169;SDS011;52971;44.024;20.456;2022-08-18T17:09:02;4.35;;;1.27;;
66169;SDS011;52971;44.024;20.456;2022-08-18T17:11:28;4.18;;;1.08;;
66169;SDS011;52971;44.024;20.456;2022-08-18T17:13:56;4.70;;;1.00;;
66169;SDS011;52971;44.024;20.456;2022-08-18T17:16:24;4.68;;;1.00;;